Time;durP1;ratioP1;P1;durP2;ratioP2;P2;SDS_P1;SDS_P2;PMS_P1;PMS_P2;Temp;Humidity;BMP_temperature;BMP_pressure;BME280_temperature;BME280_humidity;BME280_pressure;Samples;Min_cycle;Max_cycle;Signal;HPM_P1;HPM_P2
2021/07/28 00:01:54;;;;;;;2.83;2.33;;;20.00;99.90;;;18.02;100.00;100713.38;3506875;39;100085;-82
2021/07/28 00:04:21;;;;;;;5.53;2.80;;;20.00;99.90;;;17.99;100.00;100703.78;3503304;40;100418;-83
2021/07/28 00:06:48;;;;;;;5.25;3.10;;;20.70;99.90;;;17.96;100.00;100696.03;3490835;40;102340;-82
2021/07/28 00:09:17;;;;;;;4.65;2.58;;;20.10;99.90;;;17.94;100.00;100698.94;3490814;40;100300;-82
2021/07/28 00:11:44;;;;;;;3.20;2.80;;;20.00;99.90;;;17.97;100.00;100697.72;3481996;40;99963;-84
2021/07/28 00:14:11;;;;;;;4.85;2.80;;;20.00;99.90;;;17.85;100.00;100697.41;3490448;40;101226;-82
2021/07/28 00:16:38;;;;;;;4.50;3.03;;;20.00;99.90;;;17.99;100.00;100708.34;3480029;40;102857;-83
2021/07/28 00:19:09;;;;;;;3.22;2.63;;;19.80;99.90;;;17.99;100.00;100713.75;3497384;40;100469;-83
2021/07/28 00:24:23;;;;;;;2.70;2.50;;;19.90;99.90;;;17.70;100.00;100756.19;3485859;40;103065;-82
2021/07/28 00:26:50;;;;;;;4.38;2.25;;;19.90;99.90;;;17.57;100.00;100778.50;3489180;40;101443;-81
2021/07/28 00:29:17;;;;;;;3.40;2.13;;;19.90;99.90;;;17.49;100.00;100816.50;3490145;40;100587;-84
2021/07/28 00:31:44;;;;;;;3.22;2.45;;;19.80;99.90;;;17.34;100.00;100850.00;3488963;40;100266;-83
2021/07/28 00:34:11;;;;;;;5.72;3.40;;;19.80;99.90;;;17.32;100.00;100898.88;3489160;40;101817;-83
2021/07/28 00:36:38;;;;;;;4.60;2.75;;;19.80;99.90;;;17.36;100.00;100945.34;3489941;40;101167;-82
2021/07/28 00:39:05;;;;;;;8.95;3.13;;;19.70;99.90;;;17.43;100.00;100986.88;3492562;40;100568;-83
2021/07/28 00:41:33;;;;;;;3.47;2.30;;;19.70;99.90;;;17.40;100.00;101025.13;3491041;40;100136;-83
2021/07/28 00:44:00;;;;;;;4.10;2.60;;;19.60;99.90;;;17.49;100.00;101051.06;3515119;39;103379;-84
2021/07/28 00:46:27;;;;;;;6.72;2.63;;;19.60;99.90;;;17.31;100.00;101072.22;3510046;39;100277;-85
2021/07/28 00:48:54;;;;;;;3.42;2.47;;;19.60;99.90;;;17.24;100.00;101104.53;3502197;40;100712;-85
2021/07/28 00:51:21;;;;;;;4.78;2.80;;;19.60;99.90;;;17.15;100.00;101138.09;3492516;40;100208;-83
2021/07/28 00:53:49;;;;;;;4.10;2.88;;;19.50;99.90;;;17.22;100.00;101180.44;3500950;40;101228;-83
2021/07/28 00:56:18;;;;;;;6.03;3.13;;;19.60;99.90;;;17.15;100.00;101216.50;3491978;40;101089;-83
2021/07/28 00:58:47;;;;;;;2.78;2.47;;;19.60;99.90;;;17.14;100.00;101253.53;3498404;40;100499;-84
2021/07/28 01:01:16;;;;;;;3.42;2.55;;;19.50;99.90;;;17.10;100.00;101292.75;3504717;40;100030;-83
2021/07/28 01:03:43;;;;;;;3.88;3.25;;;19.40;99.90;;;17.19;100.00;101315.19;3503396;40;101305;-83
2021/07/28 01:06:11;;;;;;;2.90;2.70;;;19.40;99.90;;;17.23;100.00;101327.34;3500906;40;101121;-83
2021/07/28 01:08:38;;;;;;;3.55;2.97;;;19.40;99.90;;;17.12;100.00;101331.28;3499270;40;100614;-83
2021/07/28 01:11:06;;;;;;;4.22;3.20;;;19.30;99.90;;;17.19;100.00;101344.94;3504296;40;100076;-83
2021/07/28 01:13:36;;;;;;;3.80;2.67;;;19.30;99.90;;;17.07;100.00;101333.66;3491750;40;103130;-83
2021/07/28 01:16:12;;;;;;;4.68;3.58;;;19.30;99.90;;;17.07;100.00;101341.75;3494236;40;102172;-84
2021/07/28 01:18:40;;;;;;;7.10;3.75;;;19.30;99.90;;;17.13;100.00;101338.38;3498782;40;100148;-82
2021/07/28 01:21:10;;;;;;;8.20;2.83;;;19.20;99.90;;;17.18;100.00;101341.38;3495115;40;100057;-84
2021/07/28 01:23:40;;;;;;;5.47;3.97;;;19.20;99.90;;;17.18;100.00;101327.84;3509393;39;101024;-83
2021/07/28 01:26:09;;;;;;;4.07;3.30;;;19.20;99.90;;;17.16;100.00;101319.09;3509420;39;100250;-84
2021/07/28 01:28:37;;;;;;;3.83;2.90;;;19.20;99.90;;;17.13;100.00;101310.50;3509751;39;99577;-83
2021/07/28 01:31:08;;;;;;;3.03;2.65;;;19.20;99.90;;;17.19;100.00;101310.59;3499203;39;99950;-83
2021/07/28 01:33:37;;;;;;;4.03;3.15;;;19.30;99.90;;;17.20;100.00;101298.78;3485906;40;101538;-83
2021/07/28 01:36:06;;;;;;;4.05;3.47;;;19.30;99.90;;;17.16;100.00;101292.06;3493616;40;101095;-83
2021/07/28 01:38:34;;;;;;;4.70;3.78;;;19.20;99.90;;;17.07;100.00;101282.28;3492054;40;101925;-83
2021/07/28 01:41:05;;;;;;;3.35;3.03;;;19.20;99.90;;;17.07;100.00;101281.44;3493933;40;100300;-83
2021/07/28 01:43:33;;;;;;;5.70;3.85;;;19.20;99.90;;;17.04;100.00;101284.50;3494555;40;102462;-83
2021/07/28 01:46:03;;;;;;;3.10;2.80;;;19.20;99.90;;;16.96;100.00;101287.22;3505167;40;100753;-83
2021/07/28 01:48:31;;;;;;;4.72;3.17;;;19.20;99.90;;;16.88;100.00;101299.78;3504953;40;100805;-83
2021/07/28 01:50:58;;;;;;;3.50;3.00;;;19.20;99.90;;;16.85;100.00;101312.78;3495469;40;100736;-83
2021/07/28 01:53:27;;;;;;;4.03;2.75;;;18.80;99.90;;;16.83;100.00;101329.19;3498008;40;100890;-84
2021/07/28 01:55:56;;;;;;;4.82;3.80;;;19.70;99.90;;;16.76;100.00;101330.91;3507976;40;100918;-84
2021/07/28 01:58:25;;;;;;;3.90;3.42;;;19.00;99.90;;;16.71;100.00;101338.66;3494699;40;102446;-83
2021/07/28 02:00:52;;;;;;;5.10;3.60;;;19.00;99.90;;;16.72;100.00;101353.88;3504650;40;99965;-82
2021/07/28 02:03:19;;;;;;;4.70;3.35;;;18.90;99.90;;;16.66;100.00;101353.72;3503009;40;100667;-83
2021/07/28 02:05:46;;;;;;;6.90;3.88;;;19.10;99.90;;;16.64;100.00;101348.50;3499692;40;100079;-84
2021/07/28 02:08:16;;;;;;;6.57;3.72;;;18.80;99.90;;;16.70;100.00;101347.78;3506587;39;100159;-84
2021/07/28 02:10:46;;;;;;;5.05;3.70;;;18.80;99.90;;;16.81;100.00;101349.31;3501782;39;99953;-83
2021/07/28 02:13:15;;;;;;;3.70;2.97;;;18.80;99.90;;;16.88;100.00;101320.56;3497630;40;100798;-82
2021/07/28 02:15:44;;;;;;;5.75;3.63;;;18.80;99.90;;;16.82;100.00;101248.25;3504867;40;101352;-83
2021/07/28 02:18:12;;;;;;;3.35;3.05;;;18.90;99.90;;;16.83;100.00;101069.69;3494137;40;101414;-83
2021/07/28 02:20:40;;;;;;;4.88;3.50;;;18.80;99.90;;;16.86;100.00;101054.97;3485224;40;100201;-83
2021/07/28 02:23:07;;;;;;;4.68;3.10;;;18.70;99.90;;;16.97;100.00;101042.91;3489190;40;102699;-83
2021/07/28 02:25:34;;;;;;;4.00;2.97;;;18.70;99.90;;;16.96;100.00;101025.00;3496953;40;100800;-85
2021/07/28 02:28:01;;;;;;;5.18;3.30;;;19.60;99.90;;;17.09;100.00;101025.22;3483562;40;102616;-84
2021/07/28 02:30:29;;;;;;;4.68;3.00;;;18.80;99.90;;;17.18;100.00;101007.94;3483084;40;100336;-82
2021/07/28 02:32:57;;;;;;;2.85;2.38;;;19.20;99.90;;;17.21;100.00;100988.59;3501871;40;101066;-83
2021/07/28 02:35:24;;;;;;;4.07;2.83;;;18.90;99.90;;;17.30;100.00;100971.28;3502539;40;101336;-83
2021/07/28 02:37:51;;;;;;;3.03;2.75;;;19.00;99.90;;;17.36;100.00;100954.31;3500378;40;100356;-84
2021/07/28 02:40:20;;;;;;;4.30;3.15;;;19.00;99.90;;;17.53;100.00;100934.16;3492478;40;100101;-83
2021/07/28 02:42:49;;;;;;;3.80;3.13;;;19.10;99.90;;;17.55;100.00;100909.63;3492839;40;101138;-83
2021/07/28 02:45:16;;;;;;;5.85;3.67;;;19.10;99.90;;;17.63;100.00;100895.13;3488535;40;103456;-82
2021/07/28 02:47:44;;;;;;;5.50;4.20;;;19.20;99.90;;;17.66;100.00;100889.38;3484955;40;101283;-82
2021/07/28 02:50:13;;;;;;;3.97;3.00;;;19.80;99.90;;;17.63;100.00;100884.31;3504245;40;100171;-84
2021/07/28 02:52:41;;;;;;;3.92;3.15;;;19.30;99.90;;;17.62;100.00;100885.34;3496115;40;100967;-84
2021/07/28 02:55:10;;;;;;;5.13;2.60;;;19.40;99.90;;;17.57;100.00;100892.16;3499928;40;100907;-83
2021/07/28 02:57:39;;;;;;;6.78;3.25;;;19.40;99.90;;;17.51;100.00;100917.28;3502807;40;100391;-83
2021/07/28 03:00:08;;;;;;;3.92;2.83;;;19.50;99.90;;;17.23;100.00;100954.09;3501745;40;100309;-82
2021/07/28 03:02:36;;;;;;;4.85;3.30;;;19.50;99.90;;;17.07;100.00;101021.84;3505410;40;101041;-84
2021/07/28 03:05:42;;;;;;;4.30;3.38;;;19.50;99.90;;;16.78;100.00;101084.78;3596490;22;104296;-83
2021/07/28 03:08:19;;;;;;;3.97;3.17;;;19.30;99.90;;;16.75;100.00;101183.25;3570742;22;102779;-85
2021/07/28 03:10:47;;;;;;;5.90;4.05;;;19.90;99.90;;;16.63;100.00;101224.38;3606500;22;104524;-86
2021/07/28 03:13:14;;;;;;;8.07;4.03;;;19.40;99.90;;;16.49;100.00;101221.34;3608969;22;105369;-85
2021/07/28 03:16:23;;;;;;;4.70;3.95;;;19.20;99.90;;;16.42;100.00;101282.50;3729253;22;108262;-86
2021/07/28 03:19:36;;;;;;;6.18;4.05;;;18.00;99.90;;;16.42;100.00;101325.72;3234863;22;107905;31
2021/07/28 03:22:14;;;;;;;7.93;4.38;;;17.80;99.90;;;16.40;100.00;101399.81;3498251;22;106966;31
2021/07/28 03:25:18;;;;;;;4.07;3.45;;;17.70;99.90;;;16.44;100.00;101434.41;3487434;22;108350;-88
2021/07/28 03:31:07;;;;;;;6.50;4.25;;;17.50;99.90;;;16.41;100.00;101448.28;2980165;22;107115;-92
2021/07/28 03:33:35;;;;;;;7.53;4.97;;;17.60;99.90;;;16.45;100.00;101535.22;3494900;22;106039;31
2021/07/28 03:36:07;;;;;;;6.82;4.90;;;17.60;99.90;;;16.48;100.00;101145.88;3498049;22;106212;-85
2021/07/28 03:38:35;;;;;;;8.93;5.82;;;17.60;99.90;;;16.47;100.00;101144.19;3245326;22;106972;31
2021/07/28 03:41:38;;;;;;;6.75;4.65;;;18.50;99.90;;;16.49;100.00;101185.38;2618377;22;106704;-88
2021/07/28 03:44:14;;;;;;;5.47;4.15;;;18.60;99.90;;;16.62;100.00;101234.31;3354870;22;106881;-87
2021/07/28 03:46:47;;;;;;;6.45;4.80;;;17.60;99.90;;;16.63;100.00;101273.84;3408376;22;107177;-90
2021/07/28 03:49:51;;;;;;;6.60;5.35;;;17.60;99.90;;;16.58;100.00;101305.06;3790377;22;106897;-90
2021/07/28 03:53:04;;;;;;;7.50;5.68;;;17.60;99.90;;;16.59;100.00;101337.31;3128473;22;106600;-86
2021/07/28 03:55:40;;;;;;;10.68;5.50;;;17.70;99.90;;;16.54;100.00;101364.03;3480779;22;107245;-88
2021/07/28 03:58:44;;;;;;;8.48;5.35;;;17.70;99.90;;;16.59;100.00;101363.50;3214109;22;106020;31
2021/07/28 04:01:21;;;;;;;5.60;4.63;;;18.50;99.90;;;16.60;100.00;101379.53;2436551;22;107567;31
2021/07/28 04:03:51;;;;;;;7.32;5.25;;;17.60;99.90;;;16.64;100.00;101386.31;3220613;22;107135;-88
2021/07/28 04:06:19;;;;;;;8.00;5.43;;;17.70;99.90;;;16.76;100.00;101397.63;3552799;39;101437;-89
2021/07/28 04:08:46;;;;;;;7.80;6.07;;;18.50;99.90;;;16.63;100.00;101381.09;3272780;22;107053;-87
2021/07/28 04:11:13;;;;;;;6.85;5.75;;;17.70;99.90;;;16.50;100.00;101390.53;3511149;22;107498;-89
2021/07/28 04:13:40;;;;;;;6.15;5.00;;;18.70;99.90;;;16.68;100.00;101422.81;3688219;22;104136;-88
2021/07/28 04:16:07;;;;;;;8.93;5.97;;;17.70;99.90;;;16.69;100.00;101465.00;3594220;22;104091;-89
2021/07/28 04:18:34;;;;;;;11.35;6.15;;;17.50;99.90;;;16.76;100.00;101517.38;3643076;22;106027;-88
2021/07/28 04:21:04;;;;;;;7.75;5.40;;;17.20;99.90;;;16.79;100.00;101578.38;3409677;22;107641;-88
2021/07/28 04:23:31;;;;;;;8.73;6.10;;;17.80;99.90;;;16.71;100.00;101619.75;3058371;22;107243;-85
2021/07/28 04:26:37;;;;;;;9.27;5.90;;;18.50;99.90;;;16.67;100.00;101660.78;3092987;22;108062;-87
2021/07/28 04:29:13;;;;;;;9.30;5.97;;;17.90;99.90;;;16.77;100.00;101680.41;3706209;22;105879;-86
2021/07/28 04:31:41;;;;;;;8.07;5.70;;;18.40;99.90;;;16.67;100.00;101631.06;3310230;22;108294;-85
2021/07/28 04:34:09;;;;;;;5.38;4.88;;;18.00;99.90;;;16.75;100.00;101612.16;3060017;22;107111;-85
2021/07/28 04:36:37;;;;;;;12.90;6.95;;;18.00;99.90;;;16.88;100.00;101556.59;3350211;22;107416;-89
2021/07/28 04:39:05;;;;;;;11.52;5.65;;;18.90;99.90;;;16.92;100.00;101531.94;3528761;22;106976;-87
2021/07/28 04:42:08;;;;;;;9.40;6.78;;;19.00;99.90;;;16.79;100.00;101517.06;3619820;22;106898;-86
2021/07/28 04:45:06;;;;;;;5.97;4.95;;;18.10;99.90;;;16.83;100.00;101515.69;3615226;22;106815;-88
2021/07/28 04:47:34;;;;;;;7.50;5.63;;;18.20;99.90;;;16.70;100.00;101530.72;3185563;22;107479;-90
2021/07/28 04:50:02;;;;;;;8.32;6.15;;;18.20;99.90;;;16.78;100.00;101561.31;3335776;22;107459;-88
2021/07/28 04:52:31;;;;;;;11.05;5.80;;;18.20;99.90;;;16.78;100.00;101582.94;3130939;22;107223;-88
2021/07/28 04:55:38;;;;;;;7.63;5.90;;;19.10;99.90;;;16.73;100.00;101614.19;3235759;22;108820;31
2021/07/28 04:58:50;;;;;;;8.15;5.28;;;18.20;99.90;;;16.76;100.00;101655.25;3105311;22;106974;31
2021/07/28 05:01:26;;;;;;;5.93;5.00;;;18.20;99.90;;;16.79;100.00;101676.53;3325863;22;107041;-89
2021/07/28 05:04:29;;;;;;;8.23;5.75;;;19.00;99.90;;;16.88;100.00;101669.28;3522765;22;106892;-87
2021/07/28 05:07:07;;;;;;;8.35;6.18;;;18.80;99.90;;;16.86;100.00;101692.94;2904087;22;106919;-88
2021/07/28 05:09:36;;;;;;;10.13;6.57;;;18.20;99.90;;;16.93;100.00;101741.81;3391034;22;106971;-89
2021/07/28 05:12:03;;;;;;;9.68;6.00;;;18.20;99.90;;;16.91;100.00;101766.28;3638682;22;105038;-86
2021/07/28 05:14:42;;;;;;;8.85;6.07;;;18.30;99.90;;;16.98;100.00;101790.81;3496602;22;107285;31
2021/07/28 05:17:54;;;;;;;8.43;6.22;;;18.30;99.90;;;17.03;100.00;101839.84;3754912;22;104413;-88
2021/07/28 05:20:30;;;;;;;9.50;6.57;;;18.40;99.90;;;17.12;100.00;101910.03;3304215;22;106947;-87
2021/07/28 05:22:57;;;;;;;8.85;6.40;;;18.90;99.90;;;17.08;100.00;101953.78;3067646;22;106825;-85
2021/07/28 05:26:02;;;;;;;11.05;7.20;;;18.30;99.90;;;17.10;100.00;101976.09;3652042;22;103671;-87
2021/07/28 05:29:14;;;;;;;8.27;6.13;;;18.40;99.90;;;17.23;100.00;101979.22;3624909;22;102946;-88
2021/07/28 05:31:50;;;;;;;6.40;5.28;;;19.40;99.90;;;17.30;100.00;101974.91;3266746;22;104924;-89
2021/07/28 05:34:17;;;;;;;8.50;5.45;;;18.50;99.90;;;17.39;100.00;101963.09;2930084;22;107509;-87
2021/07/28 05:36:45;;;;;;;14.65;6.85;;;18.30;99.90;;;17.44;100.00;101959.88;3660495;22;107085;-88
2021/07/28 05:39:15;;;;;;;11.65;6.35;;;18.60;99.90;;;17.51;100.00;101952.81;3140526;22;108215;-89
2021/07/28 05:41:43;;;;;;;9.48;6.35;;;18.70;99.90;;;17.55;100.00;101909.03;3623500;22;102080;-84
2021/07/28 05:44:47;;;;;;;8.43;6.22;;;18.70;99.90;;;17.45;100.00;101878.53;3091573;22;107366;-92
2021/07/28 05:47:24;;;;;;;8.00;5.43;;;18.60;99.90;;;17.50;100.00;101830.19;3255007;22;106963;-89
2021/07/28 05:50:27;;;;;;;6.93;5.13;;;19.40;99.90;;;17.56;100.00;101820.53;3615219;22;102560;-84
2021/07/28 05:53:03;;;;;;;10.23;5.75;;;19.00;99.90;;;17.66;100.00;101815.88;3439348;22;108566;-86
2021/07/28 05:55:31;;;;;;;7.20;5.40;;;18.90;99.90;;;17.81;100.00;101819.59;3314522;22;106376;-89
2021/07/28 05:58:02;;;;;;;12.20;6.40;;;19.00;99.90;;;17.78;100.00;101803.72;3545717;22;106041;31
2021/07/28 06:00:29;;;;;;;7.15;4.47;;;20.00;99.90;;;17.91;100.00;101801.34;3622211;22;104836;-86
2021/07/28 06:02:56;;;;;;;8.70;5.13;;;19.20;99.90;;;17.94;100.00;101778.47;3637005;22;104845;-88
2021/07/28 06:05:23;;;;;;;6.57;5.32;;;19.20;99.90;;;18.08;100.00;101752.56;2902416;22;107874;-86
2021/07/28 06:07:50;;;;;;;9.45;5.93;;;20.20;99.90;;;18.11;100.00;101754.94;3613570;22;107238;-84
2021/07/28 06:10:18;;;;;;;10.30;5.35;;;20.30;99.90;;;18.22;100.00;101760.00;3458504;22;105867;31
2021/07/28 06:12:45;;;;;;;8.90;5.32;;;19.40;99.90;;;18.13;100.00;101713.13;3810190;22;105345;31
2021/07/28 06:15:14;;;;;;;6.80;4.78;;;19.50;99.90;;;18.22;100.00;101694.97;3267335;22;107818;-88
2021/07/28 06:17:41;;;;;;;8.20;5.50;;;19.60;99.90;;;18.34;100.00;101690.03;3580713;39;102633;-84
2021/07/28 06:22:34;;;;;;;8.27;4.80;;;19.70;99.90;;;18.44;100.00;101629.16;3453622;22;106306;-83
2021/07/28 06:25:02;;;;;;;6.25;5.18;;;19.80;99.90;;;18.42;100.00;101578.91;3592831;22;104844;-84
2021/07/28 06:27:29;;;;;;;8.05;4.63;;;20.50;99.90;;;18.32;100.00;101530.31;3700153;22;105364;-87
2021/07/28 06:30:36;;;;;;;9.52;5.38;;;19.90;99.90;;;18.52;100.00;101492.78;3686305;22;105511;-87
2021/07/28 06:33:49;;;;;;;8.60;4.88;;;20.00;99.90;;;19.31;100.00;101459.69;3412117;22;108478;-83
2021/07/28 06:37:01;;;;;;;5.47;4.70;;;20.10;99.90;;;19.29;100.00;101342.34;3582581;22;104586;-86
2021/07/28 06:39:37;;;;;;;6.40;5.07;;;20.50;99.90;;;18.95;100.00;101261.56;2878886;22;105364;-87
2021/07/28 06:42:04;;;;;;;4.90;4.13;;;20.80;99.90;;;19.10;100.00;101269.69;3565060;22;1916426;-87
2021/07/28 06:44:31;;;;;;;5.90;4.72;;;21.10;99.90;;;18.99;100.00;101243.91;3559270;39;102061;-86
2021/07/28 06:47:02;;;;;;;8.20;5.72;;;20.90;99.90;;;18.84;100.00;101207.81;3464639;22;107093;-89
2021/07/28 06:50:05;;;;;;;7.60;5.60;;;21.70;99.90;;;18.91;100.00;101197.91;2861829;22;107377;-87
2021/07/28 06:52:42;;;;;;;6.72;4.57;;;21.00;99.90;;;19.43;100.00;101209.50;3153115;22;106495;31
2021/07/28 06:55:10;;;;;;;4.80;4.20;;;22.00;99.90;;;19.92;100.00;101179.69;3648337;22;101576;-85
2021/07/28 06:57:38;;;;;;;12.95;5.30;;;21.20;99.90;;;19.85;100.00;101151.66;3584050;39;101045;-87
2021/07/28 07:00:07;;;;;;;6.78;5.63;;;21.40;99.90;;;19.67;100.00;101114.13;3251541;22;104661;-87
2021/07/28 07:02:35;;;;;;;16.23;5.00;;;21.60;99.90;;;19.58;100.00;101118.84;3299504;22;105871;-88
2021/07/28 07:05:03;;;;;;;6.07;4.50;;;22.30;99.90;;;19.79;100.00;101100.81;3584958;22;105191;-86
2021/07/28 07:07:30;;;;;;;7.20;4.55;;;21.80;99.90;;;19.77;100.00;101079.34;3643703;22;105940;-85
2021/07/28 07:10:34;;;;;;;5.47;4.68;;;22.70;99.90;;;19.56;100.00;101046.78;3688396;22;104855;-86
2021/07/28 07:13:10;;;;;;;5.45;4.10;;;21.90;99.90;;;19.57;100.00;101002.31;3365457;22;107470;-87
2021/07/28 07:15:37;;;;;;;8.32;4.85;;;21.90;99.90;;;19.47;100.00;100986.38;3470078;22;103156;-85
2021/07/28 07:18:06;;;;;;;5.28;4.18;;;21.90;99.90;;;19.34;100.00;100986.28;3575336;39;102931;-85
2021/07/28 07:20:33;;;;;;;9.68;4.35;;;21.90;99.90;;;19.29;100.00;100999.59;3563183;39;103006;-85
2021/07/28 07:23:36;;;;;;;7.00;4.53;;;21.80;99.90;;;19.28;100.00;101008.81;3470430;22;105882;-85
2021/07/28 07:26:12;;;;;;;6.10;4.00;;;22.70;99.90;;;19.16;100.00;101019.34;3587644;22;106770;-84
2021/07/28 07:28:39;;;;;;;7.40;3.80;;;21.70;99.90;;;19.09;100.00;101023.88;3568892;39;102820;-89
2021/07/28 07:31:10;;;;;;;7.05;3.88;;;21.60;99.90;;;19.09;100.00;101029.28;3579613;22;103527;-85
2021/07/28 07:33:40;;;;;;;12.85;4.57;;;21.40;99.90;;;19.03;100.00;101032.81;3537169;22;106419;-86
2021/07/28 07:36:10;;;;;;;5.63;4.75;;;21.50;99.90;;;19.15;100.00;101031.22;3606224;22;104233;-85
2021/07/28 07:38:38;;;;;;;4.93;4.20;;;22.10;99.90;;;19.18;100.00;101027.25;3468096;22;105963;-83
2021/07/28 07:41:05;;;;;;;4.40;3.58;;;21.30;99.90;;;19.16;100.00;101007.66;3689115;22;104417;-84
2021/07/28 07:44:09;;;;;;;5.28;4.07;;;21.30;99.90;;;19.19;100.00;100874.31;3650196;22;106728;-87
2021/07/28 07:47:21;;;;;;;5.13;4.22;;;22.00;99.90;;;19.12;100.00;100868.88;3571432;39;101016;-89
2021/07/28 07:50:36;;;;;;;7.53;4.85;;;21.30;99.90;;;19.19;100.00;100849.91;3563396;39;101015;-87
2021/07/28 07:53:47;;;;;;;7.57;4.68;;;21.20;99.90;;;19.04;100.00;100849.22;3547138;39;101967;-86
2021/07/28 07:56:59;;;;;;;5.50;4.30;;;21.10;99.90;;;19.08;100.00;100888.44;3555515;39;103020;-85
2021/07/28 08:00:11;;;;;;;9.48;4.50;;;21.10;99.90;;;19.20;100.00;100922.94;3456653;22;107467;-86
2021/07/28 08:03:23;;;;;;;11.80;5.07;;;21.10;99.90;;;19.23;100.00;100930.69;3576273;39;101111;-85
2021/07/28 08:06:36;;;;;;;9.45;4.88;;;22.00;99.90;;;19.29;100.00;100929.03;3572988;39;101059;-86
2021/07/28 08:09:48;;;;;;;5.82;4.60;;;21.10;99.90;;;19.16;100.00;100894.56;3568745;39;101999;-86
2021/07/28 08:13:00;;;;;;;5.18;4.32;;;21.20;99.90;;;19.25;100.00;100879.78;3492387;22;107130;-85
2021/07/28 08:16:11;;;;;;;8.52;5.10;;;21.20;99.90;;;19.28;100.00;100863.13;3582842;39;101302;-86
2021/07/28 08:19:23;;;;;;;8.20;4.90;;;21.20;99.90;;;19.28;100.00;100849.56;3578018;39;100808;-85
2021/07/28 08:22:36;;;;;;;5.93;5.10;;;21.10;99.90;;;19.32;100.00;100837.25;3612596;22;102064;-86
2021/07/28 08:25:13;;;;;;;4.97;4.10;;;22.10;99.90;;;19.56;100.00;100814.19;3599524;22;105913;-86
2021/07/28 08:27:45;;;;;;;7.95;5.38;;;21.20;99.90;;;19.42;100.00;100785.28;3618218;22;100979;-85
2021/07/28 08:30:13;;;;;;;8.55;5.32;;;21.30;99.90;;;19.36;100.00;100775.28;3619401;22;104218;-87
2021/07/28 08:32:41;;;;;;;5.32;3.80;;;21.40;99.90;;;19.33;100.00;100762.94;3569035;39;101120;-87
2021/07/28 08:35:09;;;;;;;10.93;5.43;;;21.40;99.90;;;19.47;100.00;100757.56;3633810;22;103700;-86
2021/07/28 08:38:14;;;;;;;8.88;4.40;;;21.50;99.90;;;19.79;100.00;100758.69;3669554;22;102323;-85
2021/07/28 08:41:28;;;;;;;3.83;3.22;;;21.60;99.90;;;19.49;100.00;100729.22;3604664;22;101539;-84
2021/07/28 08:44:43;;;;;;;6.93;4.80;;;22.20;99.90;;;19.46;100.00;100683.44;3578443;39;102363;-86
2021/07/28 08:47:56;;;;;;;5.88;4.22;;;21.80;99.90;;;19.44;100.00;100655.66;3567911;39;100133;-85
2021/07/28 08:51:08;;;;;;;4.72;3.72;;;21.90;99.90;;;19.68;100.00;100641.53;3570491;39;103028;-84
2021/07/28 08:53:45;;;;;;;5.15;3.58;;;21.90;99.90;;;19.91;100.00;100635.66;3644235;22;102053;-85
2021/07/28 08:56:13;;;;;;;6.93;4.15;;;22.10;99.90;;;20.04;100.00;100608.47;3568803;39;102434;-88
2021/07/28 08:58:41;;;;;;;4.82;3.97;;;22.60;99.90;;;20.22;100.00;100587.97;3607498;22;100703;-86
2021/07/28 09:01:09;;;;;;;5.13;3.70;;;22.30;99.90;;;20.36;100.00;100578.75;3554313;39;102809;-87
2021/07/28 09:03:36;;;;;;;8.23;4.28;;;22.50;99.90;;;20.58;100.00;100571.13;3561678;39;100883;-86
2021/07/28 09:06:03;;;;;;;6.30;4.03;;;23.50;99.90;;;20.27;100.00;100512.91;3543963;39;101519;-86
2021/07/28 09:08:32;;;;;;;3.72;2.88;;;22.90;99.90;;;20.59;100.00;100510.28;3596004;22;104558;-85
2021/07/28 09:11:04;;;;;;;5.40;3.05;;;23.60;99.90;;;20.53;100.00;100481.22;3558781;39;102969;-88
2021/07/28 09:13:35;;;;;;;5.15;3.67;;;23.10;99.90;;;20.66;100.00;100471.09;3558331;39;102987;-86
2021/07/28 09:16:06;;;;;;;6.15;4.05;;;23.20;99.90;;;20.45;100.00;100449.72;3565355;39;100673;-85
2021/07/28 09:18:36;;;;;;;5.28;4.15;;;23.30;99.90;;;20.39;100.00;100446.00;3555541;39;100232;-85
2021/07/28 09:21:06;;;;;;;5.00;3.22;;;23.30;99.90;;;20.34;100.00;100448.50;3559210;39;101833;-86
2021/07/28 09:23:35;;;;;;;6.85;3.55;;;23.30;99.90;;;20.50;100.00;100466.22;3568061;39;101479;-85
2021/07/28 09:26:06;;;;;;;6.38;3.90;;;23.50;99.90;;;20.31;100.00;100462.50;3576069;22;102796;-83
2021/07/28 09:28:33;;;;;;;5.45;3.42;;;23.30;99.90;;;21.00;100.00;100463.56;3553809;39;99943;-85
2021/07/28 09:31:01;;;;;;;6.93;3.85;;;23.40;99.90;;;21.25;100.00;100448.09;3548489;39;102264;-84
2021/07/28 09:33:28;;;;;;;6.22;4.22;;;23.90;99.90;;;21.21;100.00;100402.47;3546178;39;102028;-85
2021/07/28 09:36:17;;;;;;;7.38;3.78;;;24.00;99.90;;;21.42;100.00;100391.97;3546549;39;100156;-84
2021/07/28 09:38:45;;;;;;;10.25;3.92;;;24.00;99.90;;;21.72;100.00;100375.72;3538405;39;100664;-83
2021/07/28 09:41:21;;;;;;;3.50;2.92;;;24.60;99.90;;;21.88;100.00;100352.47;3532973;39;100693;-82
2021/07/28 09:43:51;;;;;;;3.95;3.28;;;23.80;99.90;;;21.57;100.00;100391.63;3532255;39;101102;-83
2021/07/28 09:46:33;;;;;;;4.53;2.97;;;24.70;99.90;;;21.75;100.00;100348.03;3530000;39;100575;-83
2021/07/28 09:49:02;;;;;;;4.05;3.30;;;25.00;99.90;;;22.52;100.00;100293.63;3528619;39;100106;-84
2021/07/28 09:51:35;;;;;;;4.35;2.97;;;24.70;99.90;;;22.65;100.00;100236.13;3536502;39;100442;-81
2021/07/28 09:54:05;;;;;;;6.78;3.53;;;24.80;99.90;;;22.68;100.00;100202.94;3539010;39;101305;-82
2021/07/28 09:56:54;;;;;;;3.55;2.72;;;25.10;99.90;;;22.69;100.00;100173.75;3535969;39;100772;-85
2021/07/28 09:59:22;;;;;;;5.30;3.05;;;25.40;99.90;;;22.65;100.00;100151.59;3536211;39;100268;-82
2021/07/28 10:01:49;;;;;;;2.38;1.73;;;25.50;99.90;;;22.86;100.00;100101.91;3533651;39;100772;-82
2021/07/28 10:04:20;;;;;;;5.30;2.35;;;25.70;99.90;;;22.92;100.00;100026.41;3531153;39;101392;-82
2021/07/28 10:06:49;;;;;;;2.25;1.85;;;26.40;99.90;;;22.69;100.00;100002.78;3530078;39;100219;-84
2021/07/28 10:09:20;;;;;;;4.47;2.40;;;25.80;99.90;;;22.44;100.00;99973.13;3524983;39;100474;-84
2021/07/28 10:11:52;;;;;;;3.95;1.88;;;26.00;99.90;;;23.08;100.00;99962.84;3543931;39;100091;-83
2021/07/28 10:14:21;;;;;;;3.63;2.03;;;26.60;99.90;;;23.16;100.00;99920.66;3531352;39;101238;-83
2021/07/28 10:16:52;;;;;;;2.42;2.00;;;26.50;99.50;;;22.77;100.00;99892.47;3537309;39;100285;-83
2021/07/28 10:19:22;;;;;;;2.97;1.92;;;26.20;97.60;;;22.92;100.00;99892.72;3523312;39;100115;-84
2021/07/28 10:21:50;;;;;;;1.80;1.33;;;26.30;96.80;;;23.24;100.00;99892.97;3523693;39;101358;-84
2021/07/28 10:24:17;;;;;;;2.05;1.58;;;26.50;96.30;;;23.46;100.00;99880.19;3519941;39;102951;-84
2021/07/28 10:26:48;;;;;;;2.22;1.73;;;26.70;94.40;;;23.36;100.00;99881.94;3531832;39;100238;-84
2021/07/28 10:29:18;;;;;;;1.88;1.33;;;26.80;91.80;;;23.45;100.00;99911.28;3535324;39;99917;-82
2021/07/28 10:31:47;;;;;;;2.13;1.60;;;27.00;92.00;;;23.81;100.00;99917.25;3533623;39;101138;-85
2021/07/28 10:34:24;;;;;;;2.20;1.70;;;27.00;90.90;;;23.79;100.00;99919.41;3530391;39;104279;-83
2021/07/28 10:36:53;;;;;;;2.45;1.58;;;27.20;88.60;;;24.00;100.00;99913.94;3527263;39;100511;-83
2021/07/28 10:39:46;;;;;;;3.67;1.90;;;28.20;90.00;;;23.51;100.00;99983.19;3527568;39;100166;-82
2021/07/28 10:42:15;;;;;;;2.42;1.50;;;27.60;87.10;;;23.91;100.00;99977.50;3527401;39;102496;-84
2021/07/28 10:45:06;;;;;;;2.53;1.50;;;27.70;86.40;;;23.53;100.00;99979.16;3534667;39;100786;-83
2021/07/28 10:47:42;;;;;;;2.95;1.73;;;27.90;83.00;;;23.27;100.00;99985.25;3540503;39;101110;-82